Jump to content

Sign in to follow this  
Guest

ERJ-145 flightplans?

Recommended Posts

Guest

Does anyone have any flightplans for ERJ-145 operated by the following airlines?British AirwaysSwissAmerican EagleAmerica West ExpressContinental ExpressCheers,Nick.

Share this post


Link to post
Share on other sites
Guest EGCC

Real British Regional flight on 21sc Dec 2001:EGCC.LISTO1A.HON.LOREL1J.EGSS - ETE 00:34EGSS.BUZAD2S.A20.TNT.DAYNE1A.EGCC - ETE 00:30It was the morning flight down to Stansted (with return) and it was a pretty chilly day:EGCC 210720Z 35007KT 310V020 CAVOK 00/M05 Q1014 NOSIG=EGSS 210750Z 32009KT CAVOK M01/M05 Q1011=EGSS 210850Z 05008KT CAVOK M02/M05 Q1007=EGCC 210920Z 21003KT 9999 FEW018 SCT250 M02/M05 Q1009 NOSIG=

Share this post


Link to post
Share on other sites
Guest

Interested by Air France ERJs f/p ? I've got quite a lot of these...Yohann, LFLL.

Share this post


Link to post
Share on other sites
Guest

Hello Yohann,I'am interested in the Air France f/p.Thanks in advance,With regards,Hans

Share this post


Link to post
Share on other sites
Guest

See attachements: Mainly regional flights from/to french provincial airports.All are filed via RPL, so TAS is rounded to 440 KT (M0.76).Yohann.

Share this post


Link to post
Share on other sites
Guest

Thanks for all the flightplans. Much appreciated :-)Cheers.

Share this post


Link to post
Share on other sites

Create an account or sign in to comment

You need to be a member in order to leave a comment

Create an account

Sign up for a new account in our community. It's easy!

Register a new account

Sign in

Already have an account? Sign in here.

Sign In Now
Sign in to follow this  

  • Tom Allensworth,
    Founder of AVSIM Online


  • Flight Simulation's Premier Resource!

    AVSIM is a free service to the flight simulation community. AVSIM is staffed completely by volunteers and all funds donated to AVSIM go directly back to supporting the community. Your donation here helps to pay our bandwidth costs, emergency funding, and other general costs that crop up from time to time. Thank you for your support!

    Click here for more information and to see all donations year to date.
  • Donation Goals

    AVSIM's 2020 Fundraising Goal

    Donate to our annual general fundraising goal. This donation keeps our doors open and providing you service 24 x 7 x 365. Your donation here helps to pay our bandwidth costs, emergency funding, and other general costs that crop up from time to time. We reset this goal every new year for the following year's goal.


    47%
    $11,790.00 of $25,000.00 Donate Now
×
×
  • Create New...